Time;durP1;ratioP1;P1;durP2;ratioP2;P2;SDS_P1;SDS_P2;PMS_P1;PMS_P2;Temp;Humidity;BMP_temperature;BMP_pressure;BME280_temperature;BME280_humidity;BME280_pressure;Samples;Min_cycle;Max_cycle;Signal;HPM_P1;HPM_P2
2021/10/19 00:00:07;;;;;;;;;;;;;;;5.87;78.47;101814.24;1771950;81;20108;-60
2021/10/19 00:02:36;;;;;;;;;;;;;;;5.88;78.33;101813.35;1771504;81;20437;-60
2021/10/19 00:05:04;;;;;;;;;;;;;;;5.92;78.47;101817.28;1771984;81;20123;-60
2021/10/19 00:07:32;;;;;;;;;;;;;;;5.97;78.45;101819.89;1772312;81;20155;-61
2021/10/19 00:10:00;;;;;;;;;;;;;;;6.03;78.50;101821.62;1775758;81;20152;-60
2021/10/19 00:12:28;;;;;;;;;;;;;;;6.02;78.17;101817.28;1775752;81;20182;-60
2021/10/19 00:14:56;;;;;;;;;;;;;;;5.97;78.11;101812.05;1775802;81;20120;-61
2021/10/19 00:17:23;;;;;;;;;;;;;;;5.95;78.04;101813.77;1775788;81;20188;-60
2021/10/19 00:19:51;;;;;;;;;;;;;;;5.93;77.85;101816.38;1775731;81;20164;-62
2021/10/19 00:22:19;;;;;;;;;;;;;;;5.91;78.19;101813.36;1775739;81;20124;-61
2021/10/19 00:24:47;;;;;;;;;;;;;;;5.84;78.29;101807.70;1775788;81;20124;-60
2021/10/19 00:27:14;;;;;;;;;;;;;;;5.78;78.41;101812.06;1775754;81;20116;-60
2021/10/19 00:29:42;;;;;;;;;;;;;;;5.71;78.60;101805.11;1775793;81;20153;-60
2021/10/19 00:32:10;;;;;;;;;;;;;;;5.67;78.52;101812.97;1775763;81;20158;-60
2021/10/19 00:34:38;;;;;;;;;;;;;;;5.62;78.57;101809.04;1775677;79;20163;-60
2021/10/19 00:37:05;;;;;;;;;;;;;;;5.57;78.63;101815.59;1775747;81;20159;-61
2021/10/19 00:39:33;;;;;;;;;;;;;;;5.53;78.95;101807.33;1775743;81;20108;-62
2021/10/19 00:42:01;;;;;;;;;;;;;;;5.49;79.12;101814.72;1775758;81;20124;-60
2021/10/19 00:44:29;;;;;;;;;;;;;;;5.47;79.07;101819.52;1775738;81;20195;-60
2021/10/19 00:46:58;;;;;;;;;;;;;;;5.43;79.18;101817.34;1775733;81;20133;-61
2021/10/19 00:49:26;;;;;;;;;;;;;;;5.38;79.05;101818.63;1775730;81;20112;-60
2021/10/19 00:51:54;;;;;;;;;;;;;;;5.40;78.65;101819.53;1775760;81;20160;-61
2021/10/19 00:54:23;;;;;;;;;;;;;;;5.39;78.55;101824.30;1775691;81;20120;-60
2021/10/19 00:56:52;;;;;;;;;;;;;;;5.39;78.98;101820.83;1775854;81;20128;-60
2021/10/19 00:59:20;;;;;;;;;;;;;;;5.35;79.30;101817.80;1775753;81;20168;-60
2021/10/19 01:01:48;;;;;;;;;;;;;;;5.34;79.07;101813.42;1775686;80;20182;-61
2021/10/19 01:04:16;;;;;;;;;;;;;;;5.32;78.92;101813.42;1775780;81;20148;-61
2021/10/19 01:06:44;;;;;;;;;;;;;;;5.31;78.66;101826.06;1775753;81;20169;-60
2021/10/19 01:09:12;;;;;;;;;;;;;;;5.28;78.86;101829.11;1775748;80;20123;-60
2021/10/19 01:11:39;;;;;;;;;;;;;;;5.24;79.09;101830.84;1775727;81;20128;-60
2021/10/19 01:14:07;;;;;;;;;;;;;;;5.23;79.22;101831.70;1775689;81;20156;-61
2021/10/19 01:16:35;;;;;;;;;;;;;;;5.24;79.31;101829.53;1775710;81;20120;-61
2021/10/19 01:19:03;;;;;;;;;;;;;;;5.21;79.46;101826.91;1775898;81;20127;-61
2021/10/19 01:21:31;;;;;;;;;;;;;;;5.15;79.61;101829.53;1775751;81;20116;-60
2021/10/19 01:23:59;;;;;;;;;;;;;;;5.15;79.58;101826.48;1775786;81;20196;-61
2021/10/19 01:26:26;;;;;;;;;;;;;;;5.16;79.86;101823.42;1775750;81;20194;-60
2021/10/19 01:28:54;;;;;;;;;;;;;;;5.18;79.60;101824.29;1775641;81;20153;-60
2021/10/19 01:31:22;;;;;;;;;;;;;;;5.21;79.60;101826.91;1775771;81;20157;-60
2021/10/19 01:33:50;;;;;;;;;;;;;;;5.15;80.04;101830.84;1775737;81;20151;-60
2021/10/19 01:36:17;;;;;;;;;;;;;;;5.16;79.97;101824.28;1775750;81;20128;-60
2021/10/19 01:38:45;;;;;;;;;;;;;;;5.25;79.81;101824.73;1775784;81;20200;-60
2021/10/19 01:41:13;;;;;;;;;;;;;;;5.33;79.54;101825.63;1775725;81;20160;-60
2021/10/19 01:43:42;;;;;;;;;;;;;;;5.38;79.47;101827.77;1775733;81;20260;-61
2021/10/19 01:46:09;;;;;;;;;;;;;;;5.36;79.41;101826.91;1775751;81;20158;-61
2021/10/19 01:48:37;;;;;;;;;;;;;;;5.41;79.04;101838.23;1775747;81;20123;-60
2021/10/19 01:51:06;;;;;;;;;;;;;;;5.47;78.93;101842.58;1775755;81;20163;-61
2021/10/19 01:53:33;;;;;;;;;;;;;;;5.46;79.48;101850.41;1775755;81;20427;-60
2021/10/19 01:56:01;;;;;;;;;;;;;;;5.46;79.67;101847.39;1775646;81;20124;-60
2021/10/19 01:58:29;;;;;;;;;;;;;;;5.45;80.16;101851.30;1775732;80;20128;-60
2021/10/19 02:00:57;;;;;;;;;;;;;;;5.47;80.14;101854.78;1775747;81;20148;-60
2021/10/19 02:03:25;;;;;;;;;;;;;;;5.55;80.06;101850.41;1775757;81;20157;-60
2021/10/19 02:05:52;;;;;;;;;;;;;;;5.63;80.02;101858.27;1775679;81;20124;-61
2021/10/19 02:08:20;;;;;;;;;;;;;;;5.69;79.76;101860.42;1775653;80;20191;-62
2021/10/19 02:10:48;;;;;;;;;;;;;;;5.71;79.86;101857.37;1775710;81;20199;-60
2021/10/19 02:13:16;;;;;;;;;;;;;;;5.75;79.95;101868.70;1775711;81;20162;-61
2021/10/19 02:15:44;;;;;;;;;;;;;;;5.79;80.10;101866.09;1775717;81;20157;-61
2021/10/19 02:18:11;;;;;;;;;;;;;;;5.88;79.83;101873.47;1775749;81;20154;-61
2021/10/19 02:20:39;;;;;;;;;;;;;;;5.92;80.24;101871.28;1775687;81;20128;-61
2021/10/19 02:23:07;;;;;;;;;;;;;;;5.97;80.25;101876.11;1775630;81;20132;-60
2021/10/19 02:25:36;;;;;;;;;;;;;;;6.04;80.13;101875.22;1775726;81;20120;-60
2021/10/19 02:28:04;;;;;;;;;;;;;;;6.09;80.10;101866.94;1775814;81;20196;-61
2021/10/19 02:30:31;;;;;;;;;;;;;;;6.14;79.95;101873.03;1774883;80;20124;-60
2021/10/19 02:32:59;;;;;;;;;;;;;;;6.19;79.81;101872.56;1775722;81;20155;-60
2021/10/19 02:35:27;;;;;;;;;;;;;;;6.23;80.05;101870.81;1775696;81;20231;-61
2021/10/19 02:37:55;;;;;;;;;;;;;;;6.26;79.96;101870.81;1775725;81;20180;-61
2021/10/19 02:40:23;;;;;;;;;;;;;;;6.29;79.71;101873.84;1775711;81;20157;-60
2021/10/19 02:42:50;;;;;;;;;;;;;;;6.30;79.55;101872.98;1775714;81;20132;-60
2021/10/19 02:48:06;;;;;;;;;;;;;;;6.44;79.13;101882.97;1767223;81;20435;-61
2021/10/19 02:50:34;;;;;;;;;;;;;;;6.46;79.16;101878.59;1760404;82;20157;-61
2021/10/19 02:53:02;;;;;;;;;;;;;;;6.47;79.15;101876.84;1760456;82;20417;-60
2021/10/19 02:55:30;;;;;;;;;;;;;;;6.47;79.28;101875.53;1760428;82;20563;-60
2021/10/19 02:57:58;;;;;;;;;;;;;;;6.50;78.98;101872.47;1760448;82;20141;-60
2021/10/19 03:00:25;;;;;;;;;;;;;;;6.53;79.02;101882.07;1760391;82;20158;-61
2021/10/19 03:02:53;;;;;;;;;;;;;;;6.54;79.23;101883.34;1760414;82;20154;-60
2021/10/19 03:05:21;;;;;;;;;;;;;;;6.54;79.35;101890.34;1760425;82;20236;-60
2021/10/19 03:07:49;;;;;;;;;;;;;;;6.56;79.12;101890.75;1760432;82;20153;-60
2021/10/19 03:10:17;;;;;;;;;;;;;;;6.57;79.11;101885.96;1760575;82;20193;-60
2021/10/19 03:12:44;;;;;;;;;;;;;;;6.55;79.39;101887.72;1760386;82;20166;-60
2021/10/19 03:15:12;;;;;;;;;;;;;;;6.55;79.34;101896.88;1760345;82;20142;-61
2021/10/19 03:17:40;;;;;;;;;;;;;;;6.56;79.34;101894.67;1760438;82;20165;-60
2021/10/19 03:20:08;;;;;;;;;;;;;;;6.61;79.14;101899.05;1760414;82;20146;-60
2021/10/19 03:22:36;;;;;;;;;;;;;;;6.65;79.11;101896.84;1760411;82;20192;-60
2021/10/19 03:25:05;;;;;;;;;;;;;;;6.70;78.84;101904.24;1760433;82;20130;-61
2021/10/19 03:27:32;;;;;;;;;;;;;;;6.75;78.59;101902.45;1760441;81;20448;-62
2021/10/19 03:30:00;;;;;;;;;;;;;;;6.79;78.41;101909.44;1760503;82;20227;-60
2021/10/19 03:32:28;;;;;;;;;;;;;;;6.80;78.49;101905.92;1760522;82;20153;-60
2021/10/19 03:34:55;;;;;;;;;;;;;;;6.80;78.45;101911.16;1760501;82;20153;-60
2021/10/19 03:37:23;;;;;;;;;;;;;;;6.82;78.56;101905.47;1760499;82;20150;-60
2021/10/19 03:39:51;;;;;;;;;;;;;;;6.82;78.73;101910.70;1760441;81;20223;-60
2021/10/19 03:42:19;;;;;;;;;;;;;;;6.84;78.86;101906.36;1760416;81;20146;-60
2021/10/19 03:44:46;;;;;;;;;;;;;;;6.86;78.96;101901.98;1760499;82;20141;-60
2021/10/19 03:47:14;;;;;;;;;;;;;;;6.87;78.93;101899.78;1774563;80;20170;-61
2021/10/19 03:49:42;;;;;;;;;;;;;;;6.91;78.79;101906.73;1791094;80;20135;-61
2021/10/19 03:52:10;;;;;;;;;;;;;;;6.95;78.53;101903.25;1791110;80;20378;-61
2021/10/19 03:54:38;;;;;;;;;;;;;;;7.01;78.40;101902.76;1792539;80;20139;-61
2021/10/19 03:57:07;;;;;;;;;;;;;;;7.01;78.52;101904.95;1795768;80;20401;-61
2021/10/19 03:59:35;;;;;;;;;;;;;;;7.01;78.55;101906.69;1795844;80;20413;-60
2021/10/19 04:02:03;;;;;;;;;;;;;;;7.05;78.32;101909.74;1795876;80;20184;-60
2021/10/19 04:04:33;;;;;;;;;;;;;;;7.11;78.11;101913.17;1795848;80;20202;-60
2021/10/19 04:07:00;;;;;;;;;;;;;;;7.17;77.93;101913.58;1795721;80;20430;-60
2021/10/19 04:09:27;;;;;;;;;;;;;;;7.23;77.77;101912.67;1795790;80;20164;-60
2021/10/19 04:11:55;;;;;;;;;;;;;;;7.21;77.93;101907.47;1795865;80;20159;-60
2021/10/19 04:14:23;;;;;;;;;;;;;;;7.21;78.00;101917.95;1795860;80;20151;-61
2021/10/19 04:16:50;;;;;;;;;;;;;;;7.22;78.00;101917.05;1795840;80;20152;-61
2021/10/19 04:19:18;;;;;;;;;;;;;;;7.23;78.04;101920.52;1795844;80;20115;-60
2021/10/19 04:21:47;;;;;;;;;;;;;;;7.25;78.03;101924.89;1795905;80;20168;-61
2021/10/19 04:24:16;;;;;;;;;;;;;;;7.26;78.02;101925.31;1795836;80;20160;-60
2021/10/19 04:26:44;;;;;;;;;;;;;;;7.28;77.98;101926.61;1795937;80;20183;-61
2021/10/19 04:29:12;;;;;;;;;;;;;;;7.29;78.10;101931.84;1795876;80;20203;-60
2021/10/19 04:31:41;;;;;;;;;;;;;;;7.31;77.99;101927.91;1795840;80;20147;-60
2021/10/19 04:34:09;;;;;;;;;;;;;;;7.33;77.97;101930.94;1795821;80;20160;-60
2021/10/19 04:36:37;;;;;;;;;;;;;;;7.35;78.01;101930.48;1795833;80;20147;-61
2021/10/19 04:39:05;;;;;;;;;;;;;;;7.40;77.88;101923.92;1795808;80;20158;-61
2021/10/19 04:41:32;;;;;;;;;;;;;;;7.46;77.67;101922.56;1795806;80;20171;-60
2021/10/19 04:44:00;;;;;;;;;;;;;;;7.53;77.60;101922.08;1795946;80;20159;-60
2021/10/19 04:46:28;;;;;;;;;;;;;;;7.59;77.47;101923.34;1795830;80;20159;-60
2021/10/19 04:48:56;;;;;;;;;;;;;;;7.65;77.29;101919.34;1790923;80;20210;-61
2021/10/19 04:51:23;;;;;;;;;;;;;;;7.73;77.16;101923.25;1791071;80;20190;-60
2021/10/19 04:53:51;;;;;;;;;;;;;;;7.78;77.04;101924.05;1791383;80;20166;-60
2021/10/19 04:56:20;;;;;;;;;;;;;;;7.85;76.88;101928.36;1791102;80;20152;-60
2021/10/19 04:58:48;;;;;;;;;;;;;;;7.93;76.70;101933.56;1791213;80;20156;-60
2021/10/19 05:01:17;;;;;;;;;;;;;;;8.02;76.51;101934.80;1792273;80;20127;-60
2021/10/19 05:03:46;;;;;;;;;;;;;;;8.06;76.34;101936.50;1795749;80;20240;-60
2021/10/19 05:06:15;;;;;;;;;;;;;;;8.11;76.25;101942.58;1795986;80;20154;-60
2021/10/19 05:08:43;;;;;;;;;;;;;;;8.22;76.10;101946.38;1795812;80;20152;-60
2021/10/19 05:11:11;;;;;;;;;;;;;;;8.35;75.90;101940.56;1795815;80;20174;-60
2021/10/19 05:13:39;;;;;;;;;;;;;;;8.52;75.60;101948.73;1795811;80;20190;-60
2021/10/19 05:16:06;;;;;;;;;;;;;;;8.70;75.38;101957.72;1795665;80;20126;-60
2021/10/19 05:18:34;;;;;;;;;;;;;;;8.85;74.84;101950.98;1795797;80;20123;-60
2021/10/19 05:21:04;;;;;;;;;;;;;;;8.92;74.38;101960.09;1795788;80;20170;-60
2021/10/19 05:23:33;;;;;;;;;;;;;;;8.92;74.21;101954.84;1795828;80;20150;-60
2021/10/19 05:26:00;;;;;;;;;;;;;;;8.98;74.20;101947.76;1795778;80;20154;-60
2021/10/19 05:28:28;;;;;;;;;;;;;;;9.11;74.18;101944.94;1795731;80;20123;-61
2021/10/19 05:30:56;;;;;;;;;;;;;;;9.25;74.16;101947.80;1795766;80;20190;-61
2021/10/19 05:33:24;;;;;;;;;;;;;;;9.41;73.94;101966.86;1795773;80;20111;-60
2021/10/19 05:35:52;;;;;;;;;;;;;;;9.47;73.64;101969.84;1795796;80;20174;-60
2021/10/19 05:38:20;;;;;;;;;;;;;;;9.56;73.25;101971.48;1795799;80;20127;-59
2021/10/19 05:40:48;;;;;;;;;;;;;;;9.60;72.73;101975.79;1795776;80;20127;-60
2021/10/19 05:43:16;;;;;;;;;;;;;;;9.61;72.61;101969.20;1795728;80;20123;-60
2021/10/19 05:45:44;;;;;;;;;;;;;;;9.66;72.55;101970.00;1795993;80;20160;-59
2021/10/19 05:48:12;;;;;;;;;;;;;;;9.75;72.40;101976.00;1782446;80;20159;-60
2021/10/19 05:50:40;;;;;;;;;;;;;;;9.88;72.36;101976.22;1778527;80;20162;-60
2021/10/19 05:53:07;;;;;;;;;;;;;;;10.07;72.21;101983.80;1789633;80;20423;-60
2021/10/19 05:55:37;;;;;;;;;;;;;;;10.16;71.96;101986.27;1764911;80;20124;-61
2021/10/19 05:58:05;;;;;;;;;;;;;;;10.12;71.46;101981.51;1789741;80;20198;-60
2021/10/19 06:00:32;;;;;;;;;;;;;;;10.30;71.52;101985.59;1789712;80;20155;-60
2021/10/19 06:03:00;;;;;;;;;;;;;;;10.41;71.42;101981.02;1780399;80;20128;-60
2021/10/19 06:05:28;;;;;;;;;;;;;;;10.38;71.25;101990.31;1774430;80;20123;-60
2021/10/19 06:07:56;;;;;;;;;;;;;;;10.31;71.07;101991.32;1781972;80;20115;-60
2021/10/19 06:10:24;;;;;;;;;;;;;;;10.23;70.92;101995.80;1772795;80;20123;-60
2021/10/19 06:12:52;;;;;;;;;;;;;;;10.19;71.07;101992.81;1789674;80;20323;-59
2021/10/19 06:15:20;;;;;;;;;;;;;;;10.18;70.92;101984.48;1765665;80;20154;-59
2021/10/19 06:17:48;;;;;;;;;;;;;;;10.51;70.43;101988.75;1789326;80;20116;-60
2021/10/19 06:20:16;;;;;;;;;;;;;;;11.13;69.74;101991.89;1789635;80;20123;-60
2021/10/19 06:22:44;;;;;;;;;;;;;;;12.14;69.20;101979.45;1789578;80;20124;-61
2021/10/19 06:25:11;;;;;;;;;;;;;;;13.31;66.87;101975.31;1789689;80;20120;-60
2021/10/19 06:27:40;;;;;;;;;;;;;;;14.47;65.24;101973.69;1775710;80;20155;-60
2021/10/19 06:30:09;;;;;;;;;;;;;;;14.27;63.89;101979.25;1779359;80;20421;-60
2021/10/19 06:32:39;;;;;;;;;;;;;;;13.90;64.46;101977.81;1789639;80;20131;-60
2021/10/19 06:35:11;;;;;;;;;;;;;;;13.55;63.22;101981.62;1783603;80;20112;-60
2021/10/19 06:37:38;;;;;;;;;;;;;;;13.46;63.70;101981.47;1772277;80;20123;-60
2021/10/19 06:40:07;;;;;;;;;;;;;;;13.48;63.51;101982.72;1789716;80;20120;-60
2021/10/19 06:42:35;;;;;;;;;;;;;;;13.33;62.63;101986.70;1789793;80;20378;-61
2021/10/19 06:45:04;;;;;;;;;;;;;;;13.11;62.33;101987.34;1764734;80;20127;-60
2021/10/19 06:47:32;;;;;;;;;;;;;;;13.09;62.15;101983.86;1780001;80;20175;-61
2021/10/19 06:50:00;;;;;;;;;;;;;;;13.71;60.76;101982.00;1775900;81;20128;-61
2021/10/19 06:52:32;;;;;;;;;;;;;;;15.11;59.23;101982.88;1779168;81;20108;-60
2021/10/19 06:55:00;;;;;;;;;;;;;;;16.09;58.95;101985.58;1779140;81;20120;-60
2021/10/19 06:57:27;;;;;;;;;;;;;;;16.87;57.38;101975.97;1779152;81;20112;-60
2021/10/19 06:59:55;;;;;;;;;;;;;;;17.67;53.06;101970.86;1779128;81;20151;-60
2021/10/19 07:02:23;;;;;;;;;;;;;;;18.29;53.32;101967.77;1779064;81;20120;-60
2021/10/19 07:04:51;;;;;;;;;;;;;;;19.13;52.56;101974.42;1779168;81;20132;-60
2021/10/19 07:07:19;;;;;;;;;;;;;;;19.44;50.82;101971.34;1779246;81;20112;-60
2021/10/19 07:09:47;;;;;;;;;;;;;;;19.92;50.20;101957.48;1779128;81;20115;-60
2021/10/19 07:12:14;;;;;;;;;;;;;;;19.72;47.95;101955.94;1779122;81;20163;-61
2021/10/19 07:14:43;;;;;;;;;;;;;;;19.27;49.29;101954.95;1779176;81;20124;-61
2021/10/19 07:17:11;;;;;;;;;;;;;;;19.80;47.91;101958.20;1779085;81;20563;-60
2021/10/19 07:19:40;;;;;;;;;;;;;;;20.68;48.81;101954.28;1779155;81;20140;-60
2021/10/19 07:22:09;;;;;;;;;;;;;;;21.36;47.76;101948.14;1779085;81;20124;-60
2021/10/19 07:24:37;;;;;;;;;;;;;;;21.64;42.80;101953.05;1779135;81;20124;-60
2021/10/19 07:27:05;;;;;;;;;;;;;;;21.84;42.64;101949.88;1779135;81;20111;-60
2021/10/19 07:29:33;;;;;;;;;;;;;;;22.28;43.23;101950.03;1779042;81;20179;-60
2021/10/19 07:32:00;;;;;;;;;;;;;;;22.85;43.04;101950.50;1779147;81;20124;-61
2021/10/19 07:34:30;;;;;;;;;;;;;;;22.93;38.40;101950.83;1779277;81;20152;-61
2021/10/19 07:36:58;;;;;;;;;;;;;;;23.45;39.88;101941.64;1779141;81;20124;-60
2021/10/19 07:39:25;;;;;;;;;;;;;;;24.09;39.72;101941.80;1779121;81;20158;-61
2021/10/19 07:41:53;;;;;;;;;;;;;;;24.12;37.76;101941.53;1779104;81;20167;-60
2021/10/19 07:44:23;;;;;;;;;;;;;;;23.53;38.02;101945.09;1779105;81;20198;-60
2021/10/19 07:46:53;;;;;;;;;;;;;;;23.22;36.67;101941.14;1779149;81;20389;-60
2021/10/19 07:49:21;;;;;;;;;;;;;;;23.27;37.39;101948.38;1786378;80;20158;-60
2021/10/19 07:51:50;;;;;;;;;;;;;;;23.62;36.99;101950.27;1798174;80;20127;-60
2021/10/19 07:54:19;;;;;;;;;;;;;;;22.52;37.83;101950.13;1795731;80;20127;-60
2021/10/19 07:56:47;;;;;;;;;;;;;;;21.58;37.68;101951.63;1795649;80;20127;-60
2021/10/19 07:59:15;;;;;;;;;;;;;;;21.20;38.47;101953.14;1795706;80;20123;-60
2021/10/19 08:01:43;;;;;;;;;;;;;;;20.75;39.12;101949.78;1795783;80;20158;-60
2021/10/19 08:04:11;;;;;;;;;;;;;;;20.30;39.33;101951.63;1795769;80;20389;-60
2021/10/19 08:06:39;;;;;;;;;;;;;;;19.90;39.93;101956.72;1795686;80;20518;-60
2021/10/19 08:09:07;;;;;;;;;;;;;;;19.66;41.06;101957.16;1795648;80;20123;-61
2021/10/19 08:11:36;;;;;;;;;;;;;;;19.61;41.36;101956.56;1795750;80;20123;-60
2021/10/19 08:14:04;;;;;;;;;;;;;;;19.34;41.24;101966.16;1795827;80;20195;-59
2021/10/19 08:16:31;;;;;;;;;;;;;;;19.13;42.13;101963.75;1795854;80;20123;-60
2021/10/19 08:18:59;;;;;;;;;;;;;;;18.73;40.11;101960.55;1795801;80;20115;-60
2021/10/19 08:21:27;;;;;;;;;;;;;;;18.33;40.95;101957.33;1795834;80;20152;-60
2021/10/19 08:23:55;;;;;;;;;;;;;;;17.96;41.26;101960.56;1795738;80;20213;-60
2021/10/19 08:26:24;;;;;;;;;;;;;;;17.52;41.20;101961.83;1795855;80;20179;-60
2021/10/19 08:28:53;;;;;;;;;;;;;;;17.21;41.24;101958.45;1795853;80;20410;-60
2021/10/19 08:31:21;;;;;;;;;;;;;;;16.97;41.64;101961.33;1795908;80;20152;-60
2021/10/19 08:33:50;;;;;;;;;;;;;;;16.84;42.47;101966.83;1795951;80;20421;-60
2021/10/19 08:36:18;;;;;;;;;;;;;;;16.70;41.95;101962.56;1795731;80;20418;-60
2021/10/19 08:38:48;;;;;;;;;;;;;;;16.53;41.90;101961.52;1795824;80;20155;-60
2021/10/19 08:41:17;;;;;;;;;;;;;;;16.45;41.53;101961.02;1795788;80;20427;-60
2021/10/19 08:43:45;;;;;;;;;;;;;;;16.42;42.80;101963.80;1795786;80;20215;-60
2021/10/19 08:46:13;;;;;;;;;;;;;;;16.31;41.96;101962.08;1795825;80;20127;-60
2021/10/19 08:48:41;;;;;;;;;;;;;;;16.18;43.20;101958.62;1795801;80;20191;-61
2021/10/19 08:51:10;;;;;;;;;;;;;;;16.21;43.56;101961.16;1790218;80;20115;-60
2021/10/19 08:53:39;;;;;;;;;;;;;;;16.12;43.60;101966.86;1779214;81;20159;-60
2021/10/19 08:56:08;;;;;;;;;;;;;;;16.15;44.24;101956.08;1779218;81;20155;-60
2021/10/19 08:58:38;;;;;;;;;;;;;;;16.09;44.21;101960.81;1779393;81;20136;-61
2021/10/19 09:01:06;;;;;;;;;;;;;;;15.92;44.16;101962.39;1779237;81;20120;-60
2021/10/19 09:03:34;;;;;;;;;;;;;;;15.74;43.11;101960.03;1779125;81;20202;-60
2021/10/19 09:06:02;;;;;;;;;;;;;;;15.57;43.17;101958.51;1779189;81;20132;-60
2021/10/19 09:08:30;;;;;;;;;;;;;;;15.40;43.42;101965.80;1779185;81;20154;-60
2021/10/19 09:10:58;;;;;;;;;;;;;;;15.31;43.97;101960.41;1779313;81;20154;-60
2021/10/19 09:13:26;;;;;;;;;;;;;;;15.24;44.37;101958.92;1779215;81;20112;-60
2021/10/19 09:15:54;;;;;;;;;;;;;;;15.21;44.62;101961.22;1779125;81;20183;-60
2021/10/19 09:18:23;;;;;;;;;;;;;;;15.17;45.05;101956.11;1779195;81;20154;-60
2021/10/19 09:20:55;;;;;;;;;;;;;;;15.04;45.08;101963.20;1779197;81;20135;-60
2021/10/19 09:23:24;;;;;;;;;;;;;;;14.97;44.83;101964.36;1779128;81;20111;-60
2021/10/19 09:25:53;;;;;;;;;;;;;;;14.84;45.19;101957.32;1779209;81;20449;-60
2021/10/19 09:28:35;;;;;;;;;;;;;;;14.82;45.38;101952.54;1779185;81;20414;-61
2021/10/19 09:31:03;;;;;;;;;;;;;;;14.87;45.92;101957.69;1779215;81;20119;-60
2021/10/19 09:33:31;;;;;;;;;;;;;;;14.91;46.01;101956.64;1779203;81;20159;-60
2021/10/19 09:35:59;;;;;;;;;;;;;;;15.00;46.19;101953.64;1779208;81;20124;-60
2021/10/19 09:38:28;;;;;;;;;;;;;;;14.97;46.03;101948.91;1779206;81;20128;-60
2021/10/19 09:40:58;;;;;;;;;;;;;;;14.88;46.03;101955.42;1779104;81;20405;-60
2021/10/19 09:43:27;;;;;;;;;;;;;;;14.77;45.95;101948.33;1779245;81;20162;-60
2021/10/19 09:45:58;;;;;;;;;;;;;;;14.72;45.89;101946.30;1779211;81;20128;-60
2021/10/19 09:48:27;;;;;;;;;;;;;;;14.69;46.30;101949.95;1779215;81;20127;-60
2021/10/19 09:50:55;;;;;;;;;;;;;;;14.64;46.42;101948.81;1789348;80;20114;-60
2021/10/19 09:53:24;;;;;;;;;;;;;;;14.58;46.04;101946.36;1799954;80;20155;-60
2021/10/19 09:55:53;;;;;;;;;;;;;;;14.53;46.15;101937.67;1795885;80;20123;-60
2021/10/19 09:58:21;;;;;;;;;;;;;;;14.50;46.65;101943.11;1795876;80;20127;-60
2021/10/19 10:00:49;;;;;;;;;;;;;;;14.48;46.75;101940.51;1795827;80;20123;-60
2021/10/19 10:03:17;;;;;;;;;;;;;;;14.48;45.89;101935.68;1795740;80;20154;-61
2021/10/19 10:05:47;;;;;;;;;;;;;;;14.44;46.62;101944.64;1795793;80;20127;-61
2021/10/19 10:08:19;;;;;;;;;;;;;;;14.46;46.68;101938.84;1795778;80;20198;-61
2021/10/19 10:10:54;;;;;;;;;;;;;;;14.51;46.83;101938.66;1795226;80;20123;-60
2021/10/19 10:13:22;;;;;;;;;;;;;;;14.53;46.61;101936.82;1795816;80;20127;-60
2021/10/19 10:15:50;;;;;;;;;;;;;;;14.49;45.65;101925.47;1795904;80;20183;-61
2021/10/19 10:18:19;;;;;;;;;;;;;;;14.41;45.31;101932.38;1795732;80;20153;-62
2021/10/19 10:20:49;;;;;;;;;;;;;;;14.43;45.60;101936.30;1794226;80;20123;-61
2021/10/19 10:23:21;;;;;;;;;;;;;;;14.45;46.28;101933.12;1795750;80;20131;-61
2021/10/19 10:25:50;;;;;;;;;;;;;;;14.48;46.34;101937.00;1795752;80;20123;-60
2021/10/19 10:28:19;;;;;;;;;;;;;;;14.47;46.06;101937.91;1795840;80;20153;-60
2021/10/19 10:30:48;;;;;;;;;;;;;;;14.48;46.34;101935.68;1791970;80;20111;-61
2021/10/19 10:33:15;;;;;;;;;;;;;;;14.46;46.21;101942.36;1795729;80;20519;-61
2021/10/19 10:35:44;;;;;;;;;;;;;;;14.45;46.30;101939.75;1795720;80;20123;-61
2021/10/19 10:38:12;;;;;;;;;;;;;;;14.41;46.18;101936.34;1795765;80;20115;-60
2021/10/19 10:40:41;;;;;;;;;;;;;;;14.37;46.52;101929.91;1795763;80;20123;-60
2021/10/19 10:43:29;;;;;;;;;;;;;;;14.31;46.48;101933.61;1795210;80;20119;-61
2021/10/19 10:46:07;;;;;;;;;;;;;;;14.22;46.28;101936.15;1795756;80;20127;-60
2021/10/19 10:48:35;;;;;;;;;;;;;;;14.12;45.88;101924.13;1795771;80;20448;-60
2021/10/19 10:51:04;;;;;;;;;;;;;;;14.04;44.73;101932.82;1785971;80;20116;-60
2021/10/19 10:53:36;;;;;;;;;;;;;;;13.97;45.73;101927.33;1759615;81;20115;-60
2021/10/19 10:56:04;;;;;;;;;;;;;;;13.92;45.63;101919.98;1759686;82;20159;-60
2021/10/19 10:58:34;;;;;;;;;;;;;;;13.86;45.40;101920.59;1759588;82;20198;-60
2021/10/19 11:01:22;;;;;;;;;;;;;;;13.89;45.30;101928.45;1780410;80;20128;-60
2021/10/19 11:03:52;;;;;;;;;;;;;;;13.92;45.84;101922.64;1784257;80;20153;-60
2021/10/19 11:06:21;;;;;;;;;;;;;;;14.00;45.97;101923.23;1759305;82;20433;-60
2021/10/19 11:08:51;;;;;;;;;;;;;;;14.13;46.18;101926.31;1776840;80;20115;-60
2021/10/19 11:11:20;;;;;;;;;;;;;;;14.16;45.90;101920.45;1765674;80;20123;-60
2021/10/19 11:13:49;;;;;;;;;;;;;;;14.21;46.17;101929.58;1763261;80;20128;-61
2021/10/19 11:16:18;;;;;;;;;;;;;;;14.29;45.97;101928.83;1789624;80;20154;-60
2021/10/19 11:18:47;;;;;;;;;;;;;;;14.34;45.57;101915.44;1786770;80;20158;-61
2021/10/19 11:21:15;;;;;;;;;;;;;;;14.35;45.77;101930.39;1768166;80;20123;-60
2021/10/19 11:23:43;;;;;;;;;;;;;;;14.27;45.71;101927.59;1789606;80;20127;-60
2021/10/19 11:26:11;;;;;;;;;;;;;;;14.16;45.84;101935.02;1789639;80;20147;-61
2021/10/19 11:28:43;;;;;;;;;;;;;;;14.09;45.44;101930.84;1789667;80;20150;-60
2021/10/19 11:31:13;;;;;;;;;;;;;;;13.96;45.14;101933.52;1783300;80;20124;-60
2021/10/19 11:33:42;;;;;;;;;;;;;;;13.80;45.54;101935.37;1771761;80;20483;-60
2021/10/19 11:36:11;;;;;;;;;;;;;;;13.70;45.65;101937.47;1789739;80;20166;-60
2021/10/19 11:38:46;;;;;;;;;;;;;;;13.67;45.68;101935.38;1778587;80;20124;-60
2021/10/19 11:41:15;;;;;;;;;;;;;;;13.61;45.32;101931.59;1777262;80;20123;-60
2021/10/19 11:43:47;;;;;;;;;;;;;;;13.58;45.32;101933.89;1789594;80;20115;-60
2021/10/19 11:46:17;;;;;;;;;;;;;;;13.59;45.44;101928.14;1789631;80;20492;-60
2021/10/19 11:48:46;;;;;;;;;;;;;;;13.62;45.46;101934.66;1766221;80;20111;-60
2021/10/19 11:51:15;;;;;;;;;;;;;;;13.69;45.83;101937.52;1763174;80;20127;-60
2021/10/19 11:53:44;;;;;;;;;;;;;;;13.85;44.85;101932.13;1788462;80;20425;-60
2021/10/19 11:56:14;;;;;;;;;;;;;;;13.96;45.14;101941.03;1791109;80;20115;-60
2021/10/19 11:58:53;;;;;;;;;;;;;;;14.03;44.37;101935.05;1791043;80;20484;-61
2021/10/19 12:01:21;;;;;;;;;;;;;;;14.09;45.10;101943.66;1773370;80;20119;-60
2021/10/19 12:03:56;;;;;;;;;;;;;;;14.17;44.10;101940.73;1759966;82;20151;-60
2021/10/19 12:06:25;;;;;;;;;;;;;;;14.23;44.22;101945.81;1760006;82;20124;-60
2021/10/19 12:08:53;;;;;;;;;;;;;;;14.31;43.78;101938.05;1759927;82;20152;-61
2021/10/19 12:11:22;;;;;;;;;;;;;;;14.33;43.86;101948.13;1760022;82;20647;-60
2021/10/19 12:13:54;;;;;;;;;;;;;;;14.32;43.34;101937.14;1760002;81;20397;-60
2021/10/19 12:16:23;;;;;;;;;;;;;;;14.37;43.51;101944.02;1759980;82;20390;-60
2021/10/19 12:18:52;;;;;;;;;;;;;;;14.47;44.08;101957.31;1759570;81;20112;-60
2021/10/19 12:21:20;;;;;;;;;;;;;;;14.44;44.04;101956.13;1759939;82;20167;-61
2021/10/19 12:23:51;;;;;;;;;;;;;;;14.43;44.57;101970.75;1760030;82;20238;-60
2021/10/19 12:26:20;;;;;;;;;;;;;;;14.38;44.99;101971.36;1760082;82;20128;-60
2021/10/19 12:28:52;;;;;;;;;;;;;;;14.21;45.41;101974.14;1759935;82;20425;-60
2021/10/19 12:31:21;;;;;;;;;;;;;;;14.14;45.93;101971.30;1760017;82;20155;-60
2021/10/19 12:33:56;;;;;;;;;;;;;;;14.13;46.18;101974.88;1759984;81;20124;-61
2021/10/19 12:36:29;;;;;;;;;;;;;;;14.20;46.32;101971.10;1759982;82;20124;-61
2021/10/19 12:39:01;;;;;;;;;;;;;;;14.31;46.43;101976.47;1759986;82;20128;-61
2021/10/19 12:41:30;;;;;;;;;;;;;;;14.31;46.53;101981.30;1759968;82;20154;-61
2021/10/19 12:43:58;;;;;;;;;;;;;;;14.26;46.83;101979.30;1759885;81;20157;-58
2021/10/19 12:46:26;;;;;;;;;;;;;;;14.12;47.22;101985.05;1759926;80;20191;-58
2021/10/19 12:49:02;;;;;;;;;;;;;;;13.96;47.92;101983.40;1759982;82;20184;-58